Time;durP1;ratioP1;P1;durP2;ratioP2;P2;SDS_P1;SDS_P2;PMS_P1;PMS_P2;Temp;Humidity;BMP_temperature;BMP_pressure;BME280_temperature;BME280_humidity;BME280_pressure;Samples;Min_cycle;Max_cycle;Signal;HPM_P1;HPM_P2
2021/04/30 00:01:57;;;;;;;1999.90;999.90;;;8.00;99.90;;;;;;4999849;28;20078;-94
2021/04/30 00:04:25;;;;;;;1999.90;999.90;;;8.00;99.90;;;;;;5013634;28;20045;-94
2021/04/30 00:06:52;;;;;;;1999.90;999.90;;;8.00;99.90;;;;;;5011482;28;20043;-94
2021/04/30 00:09:19;;;;;;;1999.90;999.90;;;8.00;99.90;;;;;;5007842;28;20117;-96
2021/04/30 00:11:49;;;;;;;1999.90;999.90;;;8.00;99.90;;;;;;4997876;28;20066;-96
2021/04/30 00:14:17;;;;;;;1999.90;999.90;;;8.00;99.90;;;;;;4998814;28;20054;-95
2021/04/30 00:16:44;;;;;;;1999.90;999.90;;;7.90;99.90;;;;;;4998121;28;20054;-95
2021/04/30 00:19:12;;;;;;;1999.90;999.90;;;7.90;99.90;;;;;;4997728;28;20088;-96
2021/04/30 00:21:40;;;;;;;1999.90;999.90;;;8.00;99.90;;;;;;4997949;28;20042;-96
2021/04/30 00:24:11;;;;;;;1999.90;999.90;;;8.00;99.90;;;;;;4999870;28;20058;-96
2021/04/30 00:26:42;;;;;;;1999.90;999.90;;;8.00;99.90;;;;;;5001101;28;20081;-96
2021/04/30 00:29:20;;;;;;;1999.90;999.90;;;8.00;99.90;;;;;;5002901;28;20058;-96
2021/04/30 00:32:07;;;;;;;1999.90;999.90;;;8.00;99.90;;;;;;5006225;28;20077;-96
2021/04/30 00:34:44;;;;;;;1999.90;999.90;;;8.10;99.90;;;;;;5006044;28;20058;-96
2021/04/30 00:37:24;;;;;;;1999.90;999.90;;;8.10;99.90;;;;;;5003311;28;20054;-96
2021/04/30 00:40:03;;;;;;;1999.90;999.90;;;8.10;99.90;;;;;;5004116;28;20057;-96
2021/04/30 00:42:52;;;;;;;1999.90;999.90;;;8.10;99.90;;;;;;5005181;28;20046;-96
2021/04/30 00:45:26;;;;;;;1999.90;999.90;;;8.10;99.90;;;;;;5002334;28;20060;-96
2021/04/30 00:47:57;;;;;;;1999.90;999.90;;;8.10;99.90;;;;;;5001196;28;20061;-96
2021/04/30 00:50:31;;;;;;;1999.90;999.90;;;8.10;99.90;;;;;;4998579;28;20101;-96
2021/04/30 00:53:06;;;;;;;1999.90;999.90;;;8.10;99.90;;;;;;5008269;28;20517;-96
2021/04/30 00:55:33;;;;;;;1999.90;999.90;;;8.10;99.90;;;;;;5004730;28;20081;-96
2021/04/30 00:58:03;;;;;;;1999.90;999.90;;;8.10;99.90;;;;;;4999734;28;20054;-96
2021/04/30 01:00:33;;;;;;;1999.90;999.90;;;8.10;99.90;;;;;;4999240;28;20058;-96
2021/04/30 01:03:00;;;;;;;1999.90;999.90;;;8.10;99.90;;;;;;4997643;28;20077;-96
2021/04/30 01:05:27;;;;;;;1999.90;999.90;;;8.10;99.90;;;;;;4997602;28;20453;-96
2021/04/30 01:07:55;;;;;;;1999.90;999.90;;;8.20;99.90;;;;;;4996538;28;20497;-95
2021/04/30 01:10:23;;;;;;;1999.90;999.90;;;8.20;99.90;;;;;;4997291;28;20055;-96
2021/04/30 01:12:52;;;;;;;1999.90;999.90;;;8.20;99.90;;;;;;4996777;28;20062;-96
2021/04/30 01:15:20;;;;;;;1999.90;999.90;;;8.20;99.90;;;;;;4996541;28;20126;-95
2021/04/30 01:17:48;;;;;;;1999.90;999.90;;;8.20;99.90;;;;;;4996768;28;20050;-96
2021/04/30 01:20:18;;;;;;;1999.90;999.90;;;8.20;99.90;;;;;;4997083;28;20160;-96
2021/04/30 01:22:48;;;;;;;1999.90;999.90;;;8.20;99.90;;;;;;4996176;28;20138;-95
2021/04/30 01:25:17;;;;;;;1999.90;999.90;;;8.20;99.90;;;;;;4996956;28;20061;-96
2021/04/30 01:27:44;;;;;;;1999.90;999.90;;;8.20;99.90;;;;;;4996495;28;20108;-96
2021/04/30 01:30:15;;;;;;;1999.90;999.90;;;8.30;99.90;;;;;;4997358;28;20050;-95
2021/04/30 01:32:43;;;;;;;1999.90;999.90;;;8.30;99.90;;;;;;4995835;28;20101;-96
2021/04/30 01:35:11;;;;;;;1999.90;999.90;;;8.30;99.90;;;;;;4996798;28;20348;-96
2021/04/30 01:37:39;;;;;;;1999.90;999.90;;;8.30;99.90;;;;;;4997241;28;20058;-96
2021/04/30 01:40:14;;;;;;;1999.90;999.90;;;8.30;99.90;;;;;;4996241;28;20109;-96
2021/04/30 01:42:57;;;;;;;1999.90;999.90;;;8.30;99.90;;;;;;4996173;28;20137;-96
2021/04/30 01:45:25;;;;;;;1999.90;999.90;;;8.30;99.90;;;;;;4996440;28;20076;-95
2021/04/30 01:47:52;;;;;;;1999.90;999.90;;;8.30;99.90;;;;;;4996912;28;20057;-96
2021/04/30 01:50:20;;;;;;;1999.90;999.90;;;8.30;99.90;;;;;;4996198;28;20065;-96
2021/04/30 01:52:48;;;;;;;1999.90;999.90;;;8.40;99.90;;;;;;4995869;28;20386;-96
2021/04/30 01:55:17;;;;;;;1999.90;999.90;;;8.30;99.90;;;;;;4996185;28;20057;-96
2021/04/30 01:57:47;;;;;;;1999.90;999.90;;;8.30;99.90;;;;;;4996255;28;20053;-96
2021/04/30 02:00:25;;;;;;;1999.90;999.90;;;8.30;99.90;;;;;;4996785;28;20062;-96
2021/04/30 02:02:55;;;;;;;1999.90;999.90;;;8.30;99.90;;;;;;4995357;28;20101;-96
2021/04/30 02:05:26;;;;;;;1999.90;999.90;;;8.30;99.90;;;;;;4995793;28;20117;-96
2021/04/30 02:07:55;;;;;;;1999.90;999.90;;;8.30;99.90;;;;;;4996528;28;20054;-95
2021/04/30 02:10:24;;;;;;;1999.90;999.90;;;8.30;99.90;;;;;;4995564;28;20054;-95
2021/04/30 02:12:53;;;;;;;1999.90;999.90;;;8.30;99.90;;;;;;4995254;28;20137;-95
2021/04/30 02:15:22;;;;;;;1999.90;999.90;;;8.30;99.90;;;;;;4995917;28;20058;-95
2021/04/30 02:17:51;;;;;;;1999.90;999.90;;;8.30;99.90;;;;;;4996117;28;20481;-95
2021/04/30 02:20:20;;;;;;;1999.90;999.90;;;8.30;99.90;;;;;;4995332;28;20054;-96
2021/04/30 02:22:47;;;;;;;1999.90;999.90;;;8.30;99.90;;;;;;4995634;28;20065;-96
2021/04/30 02:25:16;;;;;;;1999.90;999.90;;;8.30;99.90;;;;;;4996695;28;20074;-96
2021/04/30 02:27:46;;;;;;;1999.90;999.90;;;8.30;99.90;;;;;;4995629;28;20058;-96
2021/04/30 02:30:15;;;;;;;1999.90;999.90;;;8.30;99.90;;;;;;4995622;28;20065;-95
2021/04/30 02:32:45;;;;;;;1999.90;999.90;;;8.30;99.90;;;;;;4995700;28;20054;-96
2021/04/30 02:35:18;;;;;;;1999.90;999.90;;;8.30;99.90;;;;;;4995393;28;20050;-96
2021/04/30 02:37:46;;;;;;;1999.90;999.90;;;8.30;99.90;;;;;;4995489;28;20065;-95
2021/04/30 02:40:15;;;;;;;1999.90;999.90;;;8.30;99.90;;;;;;4995488;28;20050;-96
2021/04/30 02:42:44;;;;;;;1999.90;999.90;;;8.30;99.90;;;;;;4995523;28;20138;-96
2021/04/30 02:45:15;;;;;;;1999.90;999.90;;;8.30;99.90;;;;;;4998746;28;20061;-95
2021/04/30 02:47:46;;;;;;;1999.90;999.90;;;8.30;99.90;;;;;;4999777;28;20058;-96
2021/04/30 02:50:15;;;;;;;1999.90;999.90;;;8.20;99.90;;;;;;4999739;28;20061;-96
2021/04/30 02:52:42;;;;;;;1999.90;999.90;;;8.30;99.90;;;;;;4999872;28;20053;-95
2021/04/30 02:55:10;;;;;;;1999.90;999.90;;;8.30;99.90;;;;;;4999872;28;20054;-94
2021/04/30 02:57:38;;;;;;;1999.90;999.90;;;8.30;99.90;;;;;;5000200;28;20057;-95
2021/04/30 03:00:09;;;;;;;1999.90;999.90;;;8.30;99.90;;;;;;5004009;28;20109;-95
2021/04/30 03:02:36;;;;;;;1999.90;999.90;;;8.20;99.90;;;;;;5002892;28;20054;-95
2021/04/30 03:05:05;;;;;;;1999.90;999.90;;;8.30;99.90;;;;;;5003612;28;20430;-96
2021/04/30 03:07:32;;;;;;;1999.90;999.90;;;8.30;99.90;;;;;;5005338;28;20081;-95
2021/04/30 03:09:59;;;;;;;1999.90;999.90;;;8.20;99.90;;;;;;5001326;28;20126;-96
2021/04/30 03:12:26;;;;;;;1999.90;999.90;;;8.30;99.90;;;;;;4999087;28;20421;-96
2021/04/30 03:14:53;;;;;;;1999.90;999.90;;;8.20;99.90;;;;;;4999643;28;20108;-96
2021/04/30 03:17:22;;;;;;;1999.90;999.90;;;8.20;99.90;;;;;;4999259;28;20054;-96
2021/04/30 03:19:49;;;;;;;1999.90;999.90;;;8.30;99.90;;;;;;4998962;28;20456;-95
2021/04/30 03:22:17;;;;;;;1999.90;999.90;;;8.30;99.90;;;;;;4998899;28;20046;-96
2021/04/30 03:24:46;;;;;;;1999.90;999.90;;;8.30;99.90;;;;;;4998713;28;20104;-96
2021/04/30 03:27:13;;;;;;;1999.90;999.90;;;8.30;99.90;;;;;;4998701;28;20446;-95
2021/04/30 03:29:41;;;;;;;1999.90;999.90;;;8.30;99.90;;;;;;4999196;28;20058;-95
2021/04/30 03:32:09;;;;;;;1999.90;999.90;;;8.30;99.90;;;;;;4998607;28;20389;-96
2021/04/30 03:34:39;;;;;;;1999.90;999.90;;;8.30;99.90;;;;;;4998781;28;20078;-95
2021/04/30 03:37:07;;;;;;;1999.90;999.90;;;8.30;99.90;;;;;;4998781;28;20054;-96
2021/04/30 03:39:34;;;;;;;1999.90;999.90;;;8.30;99.90;;;;;;4998932;28;20050;-95
2021/04/30 03:42:01;;;;;;;1999.90;999.90;;;8.30;99.90;;;;;;4998490;28;20074;-95
2021/04/30 03:44:29;;;;;;;1999.90;999.90;;;8.30;99.90;;;;;;4998156;28;20058;-96
2021/04/30 03:46:56;;;;;;;1999.90;999.90;;;8.30;99.90;;;;;;4998028;28;20508;-95
2021/04/30 03:49:24;;;;;;;1999.90;999.90;;;8.30;99.90;;;;;;4998677;28;20054;-95
2021/04/30 03:51:52;;;;;;;1999.90;999.90;;;8.30;99.90;;;;;;4997996;28;20064;-96
2021/04/30 03:54:19;;;;;;;1999.90;999.90;;;8.30;99.90;;;;;;4998325;28;20108;-95
2021/04/30 03:56:48;;;;;;;1999.90;999.90;;;8.30;99.90;;;;;;4996972;28;20070;-96
2021/04/30 03:59:15;;;;;;;1999.90;999.90;;;8.20;99.90;;;;;;4998269;28;20057;-95
2021/04/30 04:01:43;;;;;;;1999.90;999.90;;;8.30;99.90;;;;;;4998687;28;20136;-95
2021/04/30 04:04:10;;;;;;;1999.90;999.90;;;8.30;99.90;;;;;;4998129;28;20524;-96
2021/04/30 04:06:38;;;;;;;1999.90;999.90;;;8.30;99.90;;;;;;4998163;28;20050;-96
2021/04/30 04:09:06;;;;;;;1999.90;999.90;;;8.20;99.90;;;;;;4998852;28;20065;-95
2021/04/30 04:11:33;;;;;;;1999.90;999.90;;;8.20;99.90;;;;;;4997948;28;20054;-95
2021/04/30 04:14:00;;;;;;;1999.90;999.90;;;8.20;99.90;;;;;;4997996;28;20058;-95
2021/04/30 04:16:28;;;;;;;1999.90;999.90;;;8.20;99.90;;;;;;4997747;28;20053;-96
2021/04/30 04:18:55;;;;;;;1999.90;999.90;;;8.30;99.90;;;;;;4997822;28;20145;-96
2021/04/30 04:21:23;;;;;;;1999.90;999.90;;;8.30;99.90;;;;;;4998013;28;20138;-95
2021/04/30 04:23:50;;;;;;;1999.90;999.90;;;8.30;99.90;;;;;;4997718;28;20046;-96
2021/04/30 04:26:18;;;;;;;1999.90;999.90;;;8.30;99.90;;;;;;4997837;28;20058;-95
2021/04/30 04:28:45;;;;;;;1999.90;999.90;;;8.30;99.90;;;;;;4998196;28;20061;-96
2021/04/30 04:31:12;;;;;;;1999.90;999.90;;;8.40;99.90;;;;;;4997675;28;20056;-96
2021/04/30 04:33:40;;;;;;;1999.90;999.90;;;8.40;99.90;;;;;;4997733;28;20054;-96
2021/04/30 04:36:10;;;;;;;1999.90;999.90;;;8.40;99.90;;;;;;4998378;28;20125;-96
2021/04/30 04:38:37;;;;;;;1999.90;999.90;;;8.40;99.90;;;;;;4997160;28;20485;-95
2021/04/30 04:41:05;;;;;;;1999.90;999.90;;;8.40;99.90;;;;;;4998334;28;20058;-95
2021/04/30 04:43:33;;;;;;;1999.90;999.90;;;8.40;99.90;;;;;;4997243;28;20054;-96
2021/04/30 04:46:00;;;;;;;1999.90;999.90;;;8.50;99.90;;;;;;4997463;28;20054;-95
2021/04/30 04:48:28;;;;;;;1999.90;999.90;;;8.40;99.90;;;;;;4997777;28;20074;-96
2021/04/30 04:50:55;;;;;;;1999.90;999.90;;;8.40;99.90;;;;;;4998294;28;20070;-95
2021/04/30 04:53:25;;;;;;;1999.90;999.90;;;8.40;99.90;;;;;;4997717;28;20057;-96
2021/04/30 04:56:12;;;;;;;1999.90;999.90;;;8.50;99.90;;;;;;4998014;28;20465;-96
2021/04/30 04:58:40;;;;;;;1999.90;999.90;;;8.40;99.90;;;;;;4997396;28;20409;-96
2021/04/30 05:01:07;;;;;;;1999.90;999.90;;;8.50;99.90;;;;;;4999403;28;20456;-96
2021/04/30 05:03:35;;;;;;;1999.90;999.90;;;8.50;99.90;;;;;;5000061;28;20051;-95
2021/04/30 05:06:02;;;;;;;1999.90;999.90;;;8.50;99.90;;;;;;4999832;28;20134;-96
2021/04/30 05:08:30;;;;;;;1999.90;999.90;;;8.50;99.90;;;;;;4998205;28;20153;-96
2021/04/30 05:10:57;;;;;;;1999.90;999.90;;;8.50;99.90;;;;;;4999769;28;20089;-96
2021/04/30 05:13:24;;;;;;;1999.90;999.90;;;8.50;99.90;;;;;;5003659;28;20101;-95
2021/04/30 05:15:57;;;;;;;1999.90;999.90;;;8.50;99.90;;;;;;5004724;28;20054;-96
2021/04/30 05:18:25;;;;;;;1999.90;999.90;;;8.50;99.90;;;;;;5005218;28;20050;-96
2021/04/30 05:20:52;;;;;;;1999.90;999.90;;;8.50;99.90;;;;;;5008318;28;20114;-96
2021/04/30 05:23:19;;;;;;;1999.90;999.90;;;8.50;99.90;;;;;;5018850;28;20030;-96
2021/04/30 05:25:48;;;;;;;1999.90;999.90;;;8.50;99.90;;;;;;5019219;28;20058;-96
2021/04/30 05:28:16;;;;;;;1999.90;999.90;;;8.50;99.90;;;;;;5020098;28;20085;-96
2021/04/30 05:30:44;;;;;;;1999.90;999.90;;;8.60;99.90;;;;;;5017755;28;20061;-96
2021/04/30 05:33:12;;;;;;;1999.90;999.90;;;8.60;99.90;;;;;;5019678;28;20065;-96
2021/04/30 05:35:39;;;;;;;1999.90;999.90;;;8.60;99.90;;;;;;5018824;28;20054;-96
2021/04/30 05:38:07;;;;;;;1999.90;999.90;;;8.60;99.90;;;;;;5004582;28;20054;-96
2021/04/30 05:40:38;;;;;;;1999.90;999.90;;;8.70;99.90;;;;;;5004175;28;20053;-95
2021/04/30 05:43:09;;;;;;;1999.90;999.90;;;8.70;99.90;;;;;;5008224;28;20101;-96
2021/04/30 05:45:39;;;;;;;1999.90;999.90;;;8.70;99.90;;;;;;5010936;28;20068;-96
2021/04/30 05:48:08;;;;;;;1999.90;999.90;;;8.70;99.90;;;;;;5018443;28;20065;-96
2021/04/30 05:50:40;;;;;;;1999.90;999.90;;;8.70;99.90;;;;;;5018404;28;20176;-95
2021/04/30 05:53:14;;;;;;;1999.90;999.90;;;8.70;99.90;;;;;;5019164;28;20038;-96
2021/04/30 05:56:00;;;;;;;1999.90;999.90;;;8.80;99.90;;;;;;5018526;28;20034;-96
2021/04/30 05:58:43;;;;;;;1999.90;999.90;;;8.70;99.90;;;;;;5019130;28;20034;-96
2021/04/30 06:01:51;;;;;;;1999.90;999.90;;;8.80;99.90;;;;;;5007492;28;20062;-96
2021/04/30 06:04:32;;;;;;;1999.90;999.90;;;8.80;99.90;;;;;;5008833;28;20046;-96
2021/04/30 06:07:15;;;;;;;1999.90;999.90;;;8.80;99.90;;;;;;5010751;28;20142;-96
2021/04/30 06:09:48;;;;;;;1999.90;999.90;;;8.80;99.90;;;;;;5009142;28;20050;-96
2021/04/30 06:12:20;;;;;;;1999.90;999.90;;;8.80;99.90;;;;;;5010742;28;20053;-96
2021/04/30 06:14:53;;;;;;;1999.90;999.90;;;8.80;99.90;;;;;;5009930;28;20050;-96
2021/04/30 06:17:32;;;;;;;1999.90;999.90;;;8.80;99.90;;;;;;5014011;28;20061;-96
2021/04/30 06:23:29;;;;;;;1999.90;999.90;;;8.80;99.90;;;;;;5014855;28;20046;-96
2021/04/30 06:26:07;;;;;;;1999.90;999.90;;;8.80;99.90;;;;;;4994751;28;20125;-96
2021/04/30 06:28:46;;;;;;;1999.90;999.90;;;8.80;99.90;;;;;;5011914;28;20058;-96
2021/04/30 06:31:22;;;;;;;1999.90;999.90;;;8.80;99.90;;;;;;5009859;28;20066;-96
2021/04/30 06:33:51;;;;;;;1999.90;999.90;;;8.80;99.90;;;;;;5007077;28;20050;-96
2021/04/30 06:36:21;;;;;;;1999.90;999.90;;;8.80;99.90;;;;;;5004132;28;20078;-96
2021/04/30 06:38:56;;;;;;;1999.90;999.90;;;8.80;99.90;;;;;;5000709;28;20054;-96
2021/04/30 06:41:24;;;;;;;1999.90;999.90;;;8.80;99.90;;;;;;4999048;28;20142;-96
2021/04/30 06:43:52;;;;;;;1999.90;999.90;;;8.80;99.90;;;;;;4998528;28;20054;-96
2021/04/30 06:46:23;;;;;;;1999.90;999.90;;;8.80;99.90;;;;;;5001641;28;20061;-96
2021/04/30 06:48:56;;;;;;;1999.90;999.90;;;8.90;99.90;;;;;;5000105;28;20058;-96
2021/04/30 06:51:23;;;;;;;1999.90;999.90;;;8.90;99.90;;;;;;5000197;28;20076;-96
2021/04/30 06:53:53;;;;;;;1999.90;999.90;;;8.80;99.90;;;;;;4998978;28;20049;-96
2021/04/30 06:56:24;;;;;;;1999.90;999.90;;;8.80;99.90;;;;;;4998790;28;20075;-96
2021/04/30 06:58:52;;;;;;;1999.90;999.90;;;8.80;99.90;;;;;;4997907;28;20065;-96
2021/04/30 07:01:20;;;;;;;1999.90;999.90;;;8.80;99.90;;;;;;5000437;28;20065;-96
2021/04/30 07:03:50;;;;;;;1999.90;999.90;;;8.80;99.90;;;;;;5007499;28;20113;-96
2021/04/30 07:06:42;;;;;;;1999.90;999.90;;;8.80;99.90;;;;;;5009034;28;20050;-96
2021/04/30 07:09:15;;;;;;;1999.90;999.90;;;8.80;99.90;;;;;;5009272;28;20466;-96
2021/04/30 07:11:55;;;;;;;1999.90;999.90;;;8.80;99.90;;;;;;5004947;28;20141;-96
2021/04/30 07:14:22;;;;;;;1999.90;999.90;;;8.80;99.90;;;;;;5001888;28;20118;-94
2021/04/30 07:16:53;;;;;;;1999.90;999.90;;;8.80;99.90;;;;;;4999430;28;20054;-96
2021/04/30 07:19:23;;;;;;;1999.90;999.90;;;8.70;99.90;;;;;;5002042;28;20077;-96
2021/04/30 07:21:55;;;;;;;1999.90;999.90;;;8.80;99.90;;;;;;5001280;28;20065;-96
2021/04/30 07:24:22;;;;;;;1999.90;999.90;;;8.80;99.90;;;;;;5007582;28;20054;-96
2021/04/30 07:26:53;;;;;;;1999.90;999.90;;;8.80;99.90;;;;;;5006009;28;20054;-96
2021/04/30 07:29:23;;;;;;;1999.90;999.90;;;8.80;99.90;;;;;;5007080;28;20058;-96
2021/04/30 07:31:59;;;;;;;1999.90;999.90;;;8.80;99.90;;;;;;5010588;28;20073;-96
2021/04/30 07:34:42;;;;;;;1999.90;999.90;;;8.80;99.90;;;;;;5011830;28;20058;-96
2021/04/30 07:37:30;;;;;;;1999.90;999.90;;;8.80;99.90;;;;;;5013592;28;20054;-96
2021/04/30 07:40:21;;;;;;;1999.90;999.90;;;8.80;99.90;;;;;;5014490;28;20054;-96
2021/04/30 07:42:52;;;;;;;1999.90;999.90;;;8.80;99.90;;;;;;5007317;28;20505;-96
2021/04/30 07:45:20;;;;;;;1999.90;999.90;;;8.80;99.90;;;;;;5007984;28;20070;-96
2021/04/30 07:47:50;;;;;;;1999.90;999.90;;;8.80;99.90;;;;;;5005582;28;20054;-96
2021/04/30 07:50:18;;;;;;;1999.90;999.90;;;8.90;99.90;;;;;;5000049;28;20057;-95
2021/04/30 07:52:47;;;;;;;1999.90;999.90;;;8.90;99.90;;;;;;4998718;28;20073;-94
2021/04/30 07:55:14;;;;;;;1999.90;999.90;;;8.90;99.90;;;;;;4998537;28;20050;-95
2021/04/30 07:57:41;;;;;;;1999.90;999.90;;;8.80;99.90;;;;;;4998413;28;20432;-96
2021/04/30 08:00:10;;;;;;;1999.90;999.90;;;8.80;99.90;;;;;;4998706;28;20140;-96
2021/04/30 08:02:38;;;;;;;1999.90;999.90;;;8.80;99.90;;;;;;4998815;28;20058;-95
2021/04/30 08:05:06;;;;;;;1999.90;999.90;;;8.80;99.90;;;;;;4998685;28;20050;-96
2021/04/30 08:07:34;;;;;;;1999.90;999.90;;;8.70;99.90;;;;;;5001509;28;20057;-96
2021/04/30 08:10:20;;;;;;;1999.90;999.90;;;8.80;99.90;;;;;;5002422;28;20112;-96
2021/04/30 08:12:57;;;;;;;1999.90;999.90;;;8.80;99.90;;;;;;5011076;28;20059;-96
2021/04/30 08:15:35;;;;;;;1999.90;999.90;;;8.70;99.90;;;;;;5011847;28;20116;-96
2021/04/30 08:18:07;;;;;;;1999.90;999.90;;;8.80;99.90;;;;;;5011270;28;20050;-96
2021/04/30 08:20:49;;;;;;;1999.90;999.90;;;8.70;99.90;;;;;;5008094;28;20054;-96
2021/04/30 08:23:39;;;;;;;1999.90;999.90;;;8.70;99.90;;;;;;5010888;28;20050;-96
2021/04/30 08:26:19;;;;;;;1999.90;999.90;;;8.70;99.90;;;;;;5014057;28;20081;-96
2021/04/30 08:29:28;;;;;;;1999.90;999.90;;;8.70;99.90;;;;;;5016771;28;20070;-96
2021/04/30 08:32:15;;;;;;;1999.90;999.90;;;8.70;99.90;;;;;;5013563;28;20050;-96
2021/04/30 08:34:51;;;;;;;1999.90;999.90;;;8.70;99.90;;;;;;5017457;28;20085;-96
2021/04/30 08:37:19;;;;;;;1999.90;999.90;;;8.70;99.90;;;;;;5000267;28;20068;-96
2021/04/30 08:39:47;;;;;;;1999.90;999.90;;;8.70;99.90;;;;;;5000386;28;20600;-96
2021/04/30 08:42:23;;;;;;;1999.90;999.90;;;8.80;99.90;;;;;;5002794;28;20552;-96
2021/04/30 08:44:51;;;;;;;1999.90;999.90;;;8.80;99.90;;;;;;5001809;28;20133;-96
2021/04/30 08:47:55;;;;;;;1999.90;999.90;;;8.80;99.90;;;;;;5001117;28;20105;-96
2021/04/30 08:50:24;;;;;;;1999.90;999.90;;;8.80;99.90;;;;;;5000787;28;20061;-96
2021/04/30 08:52:56;;;;;;;1999.90;999.90;;;8.90;99.90;;;;;;5001977;28;20050;-96
2021/04/30 08:55:33;;;;;;;1999.90;999.90;;;8.90;99.90;;;;;;5005460;28;20088;-96
2021/04/30 08:58:22;;;;;;;1999.90;999.90;;;8.90;99.90;;;;;;5006398;28;20061;-96
2021/04/30 09:01:02;;;;;;;1999.90;999.90;;;8.90;99.90;;;;;;5004681;28;20449;-96
2021/04/30 09:03:49;;;;;;;1999.90;999.90;;;8.90;99.90;;;;;;5004663;28;20054;-96
2021/04/30 09:14:52;;;;;;;1999.90;999.90;;;8.90;99.90;;;;;;4875101;29;20127;-96
2021/04/30 09:21:22;;;;;;;1999.90;999.90;;;9.00;99.90;;;;;;4968781;28;20035;-96
2021/04/30 09:27:58;;;;;;;1999.90;999.90;;;9.00;99.90;;;;;;4990214;28;20059;-96
2021/04/30 09:30:31;;;;;;;1999.90;999.90;;;9.10;99.90;;;;;;4907735;29;20092;-96
2021/04/30 10:08:19;;;;;;;1999.90;999.90;;;9.20;99.90;;;;;;4966713;29;20058;-96
2021/04/30 10:15:30;;;;;;;1999.90;999.90;;;9.10;99.90;;;;;;4891104;29;20055;-96
2021/04/30 10:18:04;;;;;;;1999.90;999.90;;;9.20;99.90;;;;;;4868914;29;20084;-95
2021/04/30 10:20:32;;;;;;;1999.90;999.90;;;9.20;99.90;;;;;;4914642;29;20125;-96
2021/04/30 10:23:05;;;;;;;1999.90;999.90;;;9.20;99.90;;;;;;4956459;29;20058;-95
2021/04/30 10:25:33;;;;;;;1999.90;999.90;;;9.30;99.90;;;;;;4966782;28;20054;-95
2021/04/30 10:28:12;;;;;;;1999.90;999.90;;;9.30;99.90;;;;;;5015369;28;20480;-94
2021/04/30 10:30:45;;;;;;;1999.90;999.90;;;9.30;99.90;;;;;;5015244;28;20053;-94
2021/04/30 10:33:18;;;;;;;1999.90;999.90;;;9.30;99.90;;;;;;5015357;28;20053;-94
2021/04/30 10:35:56;;;;;;;1999.90;999.90;;;9.30;99.90;;;;;;5015241;28;20085;-94
2021/04/30 10:38:26;;;;;;;1999.90;999.90;;;9.30;99.90;;;;;;5015963;28;20050;-95
2021/04/30 10:41:00;;;;;;;1999.90;999.90;;;9.30;99.90;;;;;;5015172;28;20054;-94
2021/04/30 10:43:28;;;;;;;1999.90;999.90;;;9.30;99.90;;;;;;5015575;28;20104;-94
2021/04/30 10:46:04;;;;;;;1999.90;999.90;;;9.30;99.90;;;;;;5015616;28;20131;-95
2021/04/30 10:48:32;;;;;;;1999.90;999.90;;;9.40;99.90;;;;;;5015665;28;20057;-95
2021/04/30 10:51:15;;;;;;;1999.90;999.90;;;9.40;99.90;;;;;;5015533;28;20050;-95
2021/04/30 10:53:45;;;;;;;1999.90;999.90;;;9.40;99.90;;;;;;5015222;28;20054;-95
2021/04/30 10:56:32;;;;;;;1999.90;999.90;;;9.40;99.90;;;;;;5015154;28;20072;-95
2021/04/30 10:59:00;;;;;;;1999.90;999.90;;;9.40;99.90;;;;;;5015079;28;20112;-95
2021/04/30 11:01:30;;;;;;;1999.90;999.90;;;9.40;99.90;;;;;;5015046;28;20046;-94
2021/04/30 11:04:18;;;;;;;1999.90;999.90;;;9.40;99.90;;;;;;5014708;28;20512;-94
2021/04/30 11:06:51;;;;;;;1999.90;999.90;;;9.40;99.90;;;;;;5019325;28;20077;-94
2021/04/30 11:09:33;;;;;;;1999.90;999.90;;;9.40;99.90;;;;;;5019667;28;20058;-96
2021/04/30 11:12:03;;;;;;;1999.90;999.90;;;9.50;99.90;;;;;;5019772;28;20084;-95
2021/04/30 11:14:35;;;;;;;1999.90;999.90;;;9.50;99.90;;;;;;5019279;28;20041;-95
2021/04/30 11:17:04;;;;;;;1999.90;999.90;;;9.50;99.90;;;;;;5018848;28;20451;-94
2021/04/30 11:19:44;;;;;;;1999.90;999.90;;;9.50;99.90;;;;;;5018703;28;20054;-96
2021/04/30 11:22:13;;;;;;;1999.90;999.90;;;9.50;99.90;;;;;;5018780;28;20108;-95
2021/04/30 11:24:51;;;;;;;1999.90;999.90;;;9.40;99.90;;;;;;5018407;28;20053;-94
2021/04/30 11:27:34;;;;;;;1999.90;999.90;;;9.40;99.90;;;;;;5019648;28;20073;-95
2021/04/30 11:30:31;;;;;;;1999.90;999.90;;;9.50;99.90;;;;;;5018605;28;20465;-95
2021/04/30 11:33:00;;;;;;;1999.90;999.90;;;9.50;99.90;;;;;;5021740;28;20058;-96
2021/04/30 11:35:32;;;;;;;1999.90;999.90;;;9.50;99.90;;;;;;5025370;28;20472;-96
2021/04/30 11:38:01;;;;;;;1999.90;999.90;;;9.50;99.90;;;;;;5019058;28;20068;-95
2021/04/30 11:40:28;;;;;;;1999.90;999.90;;;9.50;99.90;;;;;;5018815;28;20077;-96
2021/04/30 11:43:08;;;;;;;1999.90;999.90;;;9.50;99.90;;;;;;5019008;28;20095;-96
2021/04/30 11:45:44;;;;;;;1999.90;999.90;;;9.40;99.90;;;;;;5019174;28;20480;-96
2021/04/30 11:48:16;;;;;;;1999.90;999.90;;;9.40;99.90;;;;;;5019326;28;20054;-96
2021/04/30 11:50:45;;;;;;;1999.90;999.90;;;9.50;99.90;;;;;;5019828;28;20070;-96
2021/04/30 11:53:17;;;;;;;1999.90;999.90;;;9.50;99.90;;;;;;5018684;28;20046;-96
2021/04/30 11:55:48;;;;;;;1999.90;999.90;;;9.50;99.90;;;;;;5019170;28;20053;-96
2021/04/30 11:58:15;;;;;;;1999.90;999.90;;;9.50;99.90;;;;;;5019046;28;20429;-96
2021/04/30 12:00:44;;;;;;;1999.90;999.90;;;9.60;99.90;;;;;;5017883;28;20077;-96
2021/04/30 12:03:11;;;;;;;1999.90;999.90;;;9.60;99.90;;;;;;5017665;28;20057;-95
2021/04/30 12:05:39;;;;;;;1999.90;999.90;;;9.60;99.90;;;;;;5017872;28;20054;-95
2021/04/30 12:08:07;;;;;;;1999.90;999.90;;;9.60;99.90;;;;;;5018002;28;20050;-96
2021/04/30 12:10:37;;;;;;;1999.90;999.90;;;9.70;99.90;;;;;;5018069;28;20080;-96
2021/04/30 12:13:07;;;;;;;1999.90;999.90;;;9.70;99.90;;;;;;5017863;28;20401;-96
2021/04/30 12:15:38;;;;;;;1999.90;999.90;;;9.70;99.90;;;;;;5017372;28;20049;-95
2021/04/30 12:18:06;;;;;;;1999.90;999.90;;;9.80;99.90;;;;;;5017457;28;20054;-96
2021/04/30 12:20:35;;;;;;;1999.90;999.90;;;9.80;99.90;;;;;;5017598;28;20050;-95
2021/04/30 12:23:04;;;;;;;1999.90;999.90;;;9.90;99.90;;;;;;5017074;28;20100;-95
2021/04/30 12:25:36;;;;;;;1999.90;999.90;;;10.10;99.90;;;;;;5017440;28;20058;-96
2021/04/30 12:28:15;;;;;;;1999.90;999.90;;;10.10;99.90;;;;;;5017958;28;20058;-95
2021/04/30 12:30:43;;;;;;;1999.90;999.90;;;10.20;99.90;;;;;;5017860;28;20045;-95
2021/04/30 12:33:24;;;;;;;1999.90;999.90;;;10.20;99.90;;;;;;5017269;28;20056;-95
2021/04/30 12:35:53;;;;;;;1999.90;999.90;;;10.30;99.90;;;;;;5017564;28;20528;-96
2021/04/30 12:38:21;;;;;;;1999.90;999.90;;;10.30;99.90;;;;;;5017768;28;20096;-96
2021/04/30 12:40:50;;;;;;;1999.90;999.90;;;10.40;99.90;;;;;;5016749;28;20084;-96
2021/04/30 12:43:27;;;;;;;1999.90;999.90;;;10.50;99.90;;;;;;5017323;28;20052;-95
2021/04/30 12:45:57;;;;;;;1999.90;999.90;;;10.50;99.90;;;;;;5017364;28;20050;-95
2021/04/30 12:48:26;;;;;;;1999.90;999.90;;;10.60;99.90;;;;;;5017602;28;20080;-95
2021/04/30 12:50:56;;;;;;;1999.90;999.90;;;10.70;99.90;;;;;;5017085;28;20069;-94
2021/04/30 12:53:25;;;;;;;1999.90;999.90;;;10.70;99.90;;;;;;5017823;28;20042;-95
2021/04/30 12:55:53;;;;;;;1999.90;999.90;;;10.80;99.90;;;;;;5017808;28;20053;-95
2021/04/30 12:58:21;;;;;;;1999.90;999.90;;;10.80;99.90;;;;;;5017753;28;20112;-95
2021/04/30 13:01:04;;;;;;;1999.90;999.90;;;10.90;99.90;;;;;;5016581;28;20513;-96
2021/04/30 13:03:36;;;;;;;1999.90;999.90;;;11.00;99.90;;;;;;5017264;28;20154;-95
2021/04/30 13:06:06;;;;;;;1999.90;999.90;;;11.00;99.90;;;;;;5016764;28;20049;-96
2021/04/30 13:08:35;;;;;;;1999.90;999.90;;;11.00;99.90;;;;;;5017661;28;20112;-95
2021/04/30 13:11:06;;;;;;;1999.90;999.90;;;11.10;99.90;;;;;;5017205;28;20121;-95
2021/04/30 13:13:54;;;;;;;1999.90;999.90;;;11.00;99.90;;;;;;5016961;28;20119;-95
2021/04/30 13:16:33;;;;;;;1999.90;999.90;;;11.10;99.90;;;;;;5016107;28;20058;-95
2021/04/30 13:19:12;;;;;;;1999.90;999.90;;;11.00;99.90;;;;;;5016253;28;20492;-95
2021/04/30 13:21:41;;;;;;;1999.90;999.90;;;11.00;99.90;;;;;;5016204;28;20060;-96
2021/04/30 13:24:17;;;;;;;1999.90;999.90;;;11.00;99.90;;;;;;5016073;28;20057;-95
2021/04/30 13:26:57;;;;;;;1999.90;999.90;;;11.00;99.90;;;;;;5016849;28;20077;-96
2021/04/30 13:29:25;;;;;;;1999.90;999.90;;;11.00;99.90;;;;;;5016684;28;20053;-96
2021/04/30 13:32:03;;;;;;;1999.90;999.90;;;11.00;99.90;;;;;;5016511;28;20077;-95